createdAt,value
2022-11-09T00:01:29.795Z,8.43
2022-11-09T00:03:59.499Z,6.78
2022-11-09T00:06:28.595Z,7.82
2022-11-09T00:09:04.157Z,7.85
2022-11-09T00:11:35.394Z,7.32
2022-11-09T00:14:04.468Z,7.85
2022-11-09T00:16:32.787Z,7.60
2022-11-09T00:19:01.388Z,7.45
2022-11-09T00:21:30.502Z,7.70
2022-11-09T00:24:00.475Z,7.40
2022-11-09T00:26:28.842Z,8.23
2022-11-09T00:28:57.741Z,7.20
2022-11-09T00:31:26.679Z,7.70
2022-11-09T00:33:57.347Z,7.95
2022-11-09T00:36:29.090Z,7.95
2022-11-09T00:38:59.927Z,7.65
2022-11-09T00:41:29.863Z,7.88
2022-11-09T00:43:58.935Z,8.70
2022-11-09T00:46:27.652Z,8.38
2022-11-09T00:48:56.970Z,8.25
2022-11-09T00:51:25.541Z,8.13
2022-11-09T00:53:55.456Z,8.48
2022-11-09T00:56:24.520Z,8.27
2022-11-09T00:58:57.217Z,8.60
2022-11-09T01:01:25.982Z,9.38
2022-11-09T01:03:54.818Z,9.55
2022-11-09T01:06:25.438Z,8.73
2022-11-09T01:08:54.031Z,9.23
2022-11-09T01:11:23.944Z,8.30
2022-11-09T01:13:53.110Z,8.65
2022-11-09T01:16:24.473Z,9.00
2022-11-09T01:18:55.023Z,8.73
2022-11-09T01:21:23.797Z,8.93
2022-11-09T01:23:52.480Z,9.13
2022-11-09T01:26:20.812Z,9.10
2022-11-09T01:28:49.637Z,9.75
2022-11-09T01:31:20.645Z,8.68
2022-11-09T01:33:50.924Z,8.80
2022-11-09T01:36:21.245Z,9.25
2022-11-09T01:38:50.789Z,8.50
2022-11-09T01:41:22.207Z,9.15
2022-11-09T01:44:11.953Z,9.65
2022-11-09T01:46:45.025Z,8.48
2022-11-09T01:49:22.144Z,8.98
2022-11-09T01:51:54.413Z,8.30
2022-11-09T01:54:27.089Z,10.65
2022-11-09T01:56:58.919Z,9.15
2022-11-09T01:59:30.762Z,8.10
2022-11-09T02:02:00.564Z,9.13
2022-11-09T02:04:35.320Z,8.57
2022-11-09T02:07:04.269Z,9.98
2022-11-09T02:09:40.348Z,8.73
2022-11-09T02:12:09.427Z,9.45
2022-11-09T02:14:40.053Z,8.73
2022-11-09T02:17:09.408Z,9.30
2022-11-09T02:19:39.480Z,9.32
2022-11-09T02:22:09.672Z,8.90
2022-11-09T02:24:38.357Z,8.45
2022-11-09T02:27:08.009Z,9.85
2022-11-09T02:29:40.607Z,8.73
2022-11-09T02:32:13.231Z,8.65
2022-11-09T02:34:41.822Z,8.50
2022-11-09T02:37:12.102Z,9.05
2022-11-09T02:39:40.724Z,9.23
2022-11-09T02:42:11.538Z,9.57
2022-11-09T02:44:43.097Z,9.88
2022-11-09T02:47:11.648Z,9.10
2022-11-09T02:49:40.077Z,9.40
2022-11-09T02:52:08.852Z,9.18
2022-11-09T02:54:38.716Z,8.80
2022-11-09T02:57:07.258Z,9.05
2022-11-09T02:59:35.800Z,9.35
2022-11-09T03:02:04.419Z,9.35
2022-11-09T03:04:32.734Z,8.60
2022-11-09T03:07:01.449Z,9.18
2022-11-09T03:09:29.951Z,9.25
2022-11-09T03:12:20.105Z,8.05
2022-11-09T03:14:48.435Z,9.82
2022-11-09T03:17:17.678Z,8.30
2022-11-09T03:19:46.105Z,8.15
2022-11-09T03:22:14.687Z,8.68
2022-11-09T03:24:43.222Z,8.05
2022-11-09T03:27:13.401Z,8.43
2022-11-09T03:29:41.888Z,9.00
2022-11-09T03:32:11.020Z,8.68
2022-11-09T03:34:39.565Z,8.50
2022-11-09T03:37:08.391Z,9.00
2022-11-09T03:39:36.840Z,7.88
2022-11-09T03:42:05.629Z,7.70
2022-11-09T03:44:35.448Z,7.68
2022-11-09T03:47:04.154Z,8.40
2022-11-09T03:49:32.562Z,8.60
2022-11-09T03:52:01.106Z,7.60
2022-11-09T03:54:29.422Z,8.63
2022-11-09T03:56:57.967Z,9.02
2022-11-09T03:59:26.229Z,8.55
2022-11-09T04:01:56.297Z,8.38
2022-11-09T04:04:24.669Z,7.40
2022-11-09T04:06:53.346Z,9.95
2022-11-09T04:09:21.639Z,9.48
2022-11-09T04:11:50.154Z,9.10
2022-11-09T04:14:18.596Z,9.80
2022-11-09T04:16:47.139Z,8.77
2022-11-09T04:19:17.029Z,8.10
2022-11-09T04:21:45.672Z,9.10
2022-11-09T04:24:14.260Z,9.88
2022-11-09T04:26:43.084Z,9.68
2022-11-09T04:29:12.012Z,9.82
2022-11-09T04:31:40.876Z,9.65
2022-11-09T04:34:09.304Z,9.32
2022-11-09T04:36:39.825Z,9.20
2022-11-09T04:39:08.370Z,9.63
2022-11-09T04:41:37.490Z,8.50
2022-11-09T04:44:06.266Z,9.10
2022-11-09T04:46:35.082Z,8.27
2022-11-09T04:49:03.589Z,8.65
2022-11-09T04:51:32.361Z,8.38
2022-11-09T04:54:02.174Z,8.13
2022-11-09T04:56:30.852Z,9.05
2022-11-09T04:58:59.146Z,8.55
2022-11-09T05:01:27.931Z,9.32
2022-11-09T05:03:56.360Z,9.52
2022-11-09T05:06:34.061Z,8.65
2022-11-09T05:09:05.562Z,8.65
2022-11-09T05:11:35.153Z,8.23
2022-11-09T05:14:03.738Z,9.45
2022-11-09T05:16:32.935Z,9.52
2022-11-09T05:19:01.308Z,10.23
2022-11-09T05:21:29.985Z,9.52
2022-11-09T05:23:59.933Z,9.27
2022-11-09T05:26:32.556Z,8.05
2022-11-09T05:29:02.056Z,9.32
2022-11-09T05:31:31.327Z,9.80
2022-11-09T05:34:00.613Z,8.65
2022-11-09T05:36:30.506Z,9.43
2022-11-09T05:38:59.374Z,9.10
2022-11-09T05:41:27.935Z,7.65
2022-11-09T05:43:57.528Z,8.23
2022-11-09T05:46:27.049Z,8.00
2022-11-09T05:48:55.584Z,8.50
2022-11-09T05:51:24.474Z,8.17
2022-11-09T05:53:53.007Z,8.98
2022-11-09T05:56:22.027Z,8.38
2022-11-09T05:58:50.734Z,8.10
2022-11-09T06:01:20.867Z,8.07
2022-11-09T06:03:49.367Z,6.75
2022-11-09T06:06:18.626Z,8.30
2022-11-09T06:08:46.951Z,8.55
2022-11-09T06:11:21.802Z,8.85
2022-11-09T06:13:52.080Z,8.23
2022-11-09T06:16:22.601Z,8.50
2022-11-09T06:18:51.419Z,8.57
2022-11-09T06:21:20.328Z,8.52
2022-11-09T06:23:48.852Z,8.98
2022-11-09T06:26:17.653Z,9.82
2022-11-09T06:28:46.054Z,9.52
2022-11-09T06:31:16.727Z,9.63
2022-11-09T06:33:46.740Z,9.23
2022-11-09T06:36:15.598Z,8.90
2022-11-09T06:38:45.362Z,10.50
2022-11-09T06:41:15.074Z,10.70
2022-11-09T06:43:44.526Z,11.07
2022-11-09T06:46:17.569Z,10.82
2022-11-09T06:48:51.873Z,10.65
2022-11-09T06:51:23.150Z,10.05
2022-11-09T06:53:51.789Z,11.43
2022-11-09T06:56:20.517Z,11.07
2022-11-09T06:58:49.178Z,10.85
2022-11-09T07:01:20.285Z,9.77
2022-11-09T07:03:50.486Z,10.85
2022-11-09T07:06:19.720Z,10.30
2022-11-09T07:08:48.141Z,11.20
2022-11-09T07:11:19.575Z,10.82
2022-11-09T07:13:54.739Z,10.05
2022-11-09T07:16:25.970Z,10.43
2022-11-09T07:18:55.853Z,11.48
2022-11-09T07:21:24.763Z,10.35
2022-11-09T07:23:53.072Z,10.35
2022-11-09T07:26:21.651Z,9.50
2022-11-09T07:28:50.181Z,10.75
2022-11-09T07:31:18.763Z,9.50
2022-11-09T07:33:47.191Z,10.63
2022-11-09T07:36:21.407Z,10.30
2022-11-09T07:38:50.120Z,10.65
2022-11-09T07:41:18.868Z,8.80
2022-11-09T07:43:47.149Z,8.88
2022-11-09T07:46:16.104Z,10.63
2022-11-09T07:48:44.505Z,9.40
2022-11-09T07:51:13.392Z,9.68
2022-11-09T07:53:43.061Z,9.75
2022-11-09T07:56:11.713Z,9.35
2022-11-09T07:58:39.951Z,9.50
2022-11-09T08:01:09.623Z,9.60
2022-11-09T08:03:38.314Z,10.27
2022-11-09T08:06:07.253Z,10.80
2022-11-09T08:08:35.521Z,9.43
2022-11-09T08:11:05.890Z,9.23
2022-11-09T08:13:34.481Z,10.77
2022-11-09T08:16:03.879Z,9.45
2022-11-09T08:18:32.299Z,8.50
2022-11-09T08:21:03.958Z,9.50
2022-11-09T08:23:32.508Z,9.38
2022-11-09T08:26:06.764Z,10.23
2022-11-09T08:28:35.961Z,9.27
2022-11-09T08:31:09.167Z,9.60
2022-11-09T08:33:39.791Z,8.95
2022-11-09T08:36:13.534Z,9.15
2022-11-09T08:38:42.747Z,8.35
2022-11-09T08:41:14.078Z,9.13
2022-11-09T08:43:42.874Z,8.95
2022-11-09T08:46:11.466Z,8.32
2022-11-09T08:48:39.823Z,9.32
2022-11-09T08:51:08.472Z,9.75
2022-11-09T08:53:36.668Z,8.95
2022-11-09T08:56:08.040Z,9.77
2022-11-09T08:58:37.898Z,10.00
2022-11-09T09:01:12.192Z,11.05
2022-11-09T09:03:43.805Z,11.18
2022-11-09T09:06:12.538Z,11.93
2022-11-09T09:08:40.887Z,10.25
2022-11-09T09:11:09.430Z,12.80
2022-11-09T09:13:43.257Z,11.05
2022-11-09T09:16:13.569Z,10.07
2022-11-09T09:18:41.905Z,10.02
2022-11-09T09:21:11.570Z,10.00
2022-11-09T09:23:39.961Z,9.75
2022-11-09T09:26:08.830Z,11.40
2022-11-09T09:28:39.148Z,10.85
2022-11-09T09:31:08.242Z,11.25
2022-11-09T09:33:36.724Z,12.18
2022-11-09T09:36:06.086Z,11.52
2022-11-09T09:38:34.357Z,11.23
2022-11-09T09:41:05.126Z,11.70
2022-11-09T09:43:42.590Z,11.50
2022-11-09T09:46:18.956Z,10.05
2022-11-09T09:48:51.410Z,10.43
2022-11-09T09:51:26.233Z,10.57
2022-11-09T09:53:58.887Z,10.93
2022-11-09T09:56:32.103Z,11.02
2022-11-09T09:59:07.633Z,11.63
2022-11-09T10:01:40.205Z,10.82
2022-11-09T10:04:19.334Z,10.52
2022-11-09T10:07:01.587Z,10.70
2022-11-09T10:09:46.384Z,9.13
2022-11-09T10:12:23.982Z,10.35
2022-11-09T10:15:15.395Z,7.22
2022-11-09T10:18:00.676Z,9.18
2022-11-09T10:20:42.964Z,8.82
2022-11-09T10:23:30.184Z,8.65
2022-11-09T10:26:07.042Z,8.05
2022-11-09T10:29:09.656Z,8.38
2022-11-09T10:31:34.969Z,7.10
2022-11-09T10:34:20.197Z,7.57
2022-11-09T10:36:55.810Z,7.35
2022-11-09T10:39:27.670Z,7.95
2022-11-09T10:41:56.167Z,7.28
2022-11-09T10:44:25.004Z,8.02
2022-11-09T10:47:11.902Z,6.65
2022-11-09T10:49:42.409Z,7.28
2022-11-09T10:52:33.062Z,7.20
2022-11-09T10:55:17.761Z,7.07
2022-11-09T10:57:53.786Z,7.13
2022-11-09T11:00:23.013Z,6.15
2022-11-09T11:02:52.914Z,7.53
2022-11-09T11:05:27.212Z,7.60
2022-11-09T11:07:56.577Z,8.00
2022-11-09T11:10:25.304Z,7.30
2022-11-09T11:13:17.080Z,7.20
2022-11-09T11:15:45.664Z,6.72
2022-11-09T11:18:19.060Z,8.10
2022-11-09T11:20:49.193Z,6.25
2022-11-09T11:23:19.972Z,6.80
2022-11-09T11:26:10.596Z,8.43
2022-11-09T11:28:44.628Z,7.43
2022-11-09T11:31:16.162Z,7.57
2022-11-09T11:33:45.242Z,7.00
2022-11-09T11:36:22.059Z,6.57
2022-11-09T11:38:58.695Z,7.80
2022-11-09T11:41:51.902Z,5.75
2022-11-09T11:44:35.365Z,6.53
2022-11-09T11:47:11.368Z,7.10
2022-11-09T11:49:57.386Z,7.10
2022-11-09T11:52:31.840Z,6.45
2022-11-09T11:55:19.467Z,5.70
2022-11-09T11:57:59.543Z,5.82
2022-11-09T12:00:28.855Z,6.80
2022-11-09T12:03:28.858Z,6.95
2022-11-09T12:06:39.704Z,6.18
2022-11-09T12:09:26.466Z,6.72
2022-11-09T12:12:08.377Z,7.95
2022-11-09T12:14:46.937Z,6.80
2022-11-09T12:17:22.924Z,6.72
2022-11-09T12:20:20.026Z,6.70
2022-11-09T12:22:56.105Z,6.93
2022-11-09T12:25:31.276Z,6.68
2022-11-09T12:28:14.469Z,7.50
2022-11-09T12:30:56.049Z,7.20
2022-11-09T12:33:34.819Z,7.07
2022-11-09T12:36:10.637Z,7.28
2022-11-09T12:38:48.765Z,6.80
2022-11-09T12:41:22.906Z,6.50
2022-11-09T12:43:56.374Z,7.05
2022-11-09T12:46:32.267Z,6.35
2022-11-09T12:49:05.003Z,7.80
2022-11-09T12:51:34.296Z,6.97
2022-11-09T12:54:11.288Z,6.05
2022-11-09T12:56:51.139Z,7.95
2022-11-09T12:59:34.316Z,6.63
2022-11-09T13:02:03.957Z,7.95
2022-11-09T13:04:33.589Z,6.80
2022-11-09T13:07:31.108Z,8.02
2022-11-09T13:10:02.754Z,5.95
2022-11-09T13:12:42.817Z,6.95
2022-11-09T13:15:23.834Z,7.35
2022-11-09T13:17:59.709Z,6.72
2022-11-09T13:20:55.481Z,7.10
2022-11-09T13:24:00.108Z,7.60
2022-11-09T13:26:58.631Z,6.50
2022-11-09T13:29:29.732Z,7.40
2022-11-09T13:32:24.870Z,7.07
2022-11-09T13:34:54.824Z,7.70
2022-11-09T13:37:54.825Z,7.22
2022-11-09T13:40:44.765Z,6.95
2022-11-09T13:43:20.465Z,7.30
2022-11-09T13:45:52.605Z,7.72
2022-11-09T13:48:40.859Z,7.53
2022-11-09T13:51:12.144Z,6.35
2022-11-09T13:53:55.741Z,7.25
2022-11-09T13:56:29.439Z,7.40
2022-11-09T13:59:03.776Z,7.68
2022-11-09T14:01:38.381Z,7.20
2022-11-09T14:04:07.260Z,6.75
2022-11-09T14:06:35.666Z,6.82
2022-11-09T14:09:04.817Z,7.55
2022-11-09T14:11:48.345Z,6.68
2022-11-09T14:14:39.562Z,6.13
2022-11-09T14:17:18.369Z,7.47
2022-11-09T14:20:00.179Z,8.20
2022-11-09T14:22:32.644Z,8.75
2022-11-09T14:25:04.539Z,7.80
2022-11-09T14:27:32.880Z,7.03
2022-11-09T14:30:02.650Z,6.82
2022-11-09T14:32:35.830Z,8.35
2022-11-09T14:35:25.596Z,7.57
2022-11-09T14:37:56.021Z,8.30
2022-11-09T14:40:26.562Z,7.53
2022-11-09T14:42:59.695Z,6.75
2022-11-09T14:45:29.310Z,8.77
2022-11-09T14:48:00.782Z,8.88
2022-11-09T14:50:32.304Z,7.28
2022-11-09T14:53:02.104Z,6.95
2022-11-09T14:55:31.718Z,8.27
2022-11-09T14:58:00.401Z,8.05
2022-11-09T15:00:33.054Z,6.85
2022-11-09T15:03:23.536Z,7.35
2022-11-09T15:06:03.644Z,6.05
2022-11-09T15:08:32.607Z,6.95
2022-11-09T15:11:01.296Z,7.25
2022-11-09T15:13:32.851Z,7.43
2022-11-09T15:16:01.698Z,8.93
2022-11-09T15:18:34.566Z,8.38
2022-11-09T15:21:14.376Z,8.20
2022-11-09T15:23:44.492Z,9.45
2022-11-09T15:26:36.049Z,9.70
2022-11-09T15:29:19.879Z,9.32
2022-11-09T15:31:58.896Z,10.02
2022-11-09T15:34:33.537Z,9.27
2022-11-09T15:37:01.790Z,8.82
2022-11-09T15:39:30.418Z,9.93
2022-11-09T15:41:58.739Z,8.65
2022-11-09T15:44:26.993Z,8.38
2022-11-09T15:46:55.842Z,7.90
2022-11-09T15:49:26.757Z,8.63
2022-11-09T15:51:57.351Z,8.35
2022-11-09T15:54:25.765Z,8.27
2022-11-09T15:56:54.165Z,7.57
2022-11-09T15:59:24.948Z,7.50
2022-11-09T16:01:53.851Z,7.72
2022-11-09T16:04:22.615Z,7.63
2022-11-09T16:06:51.277Z,7.75
2022-11-09T16:09:20.892Z,7.40
2022-11-09T16:11:50.442Z,6.68
2022-11-09T16:14:21.637Z,7.07
2022-11-09T16:16:50.153Z,7.63
2022-11-09T16:19:18.476Z,7.05
2022-11-09T16:21:47.059Z,7.20
2022-11-09T16:24:17.461Z,8.68
2022-11-09T16:26:47.154Z,7.88
2022-11-09T16:29:15.672Z,7.28
2022-11-09T16:31:52.398Z,9.05
2022-11-09T16:34:21.722Z,8.18
2022-11-09T16:36:56.423Z,7.03
2022-11-09T16:39:27.114Z,8.10
2022-11-09T16:41:56.853Z,8.02
2022-11-09T16:44:25.984Z,7.55
2022-11-09T16:46:54.652Z,7.85
2022-11-09T16:49:22.990Z,8.73
2022-11-09T16:51:51.475Z,8.75
2022-11-09T16:54:19.795Z,8.70
2022-11-09T16:56:48.520Z,8.38
2022-11-09T16:59:18.613Z,8.73
2022-11-09T17:01:52.596Z,7.88
2022-11-09T17:04:21.330Z,9.27
2022-11-09T17:06:49.757Z,8.95
2022-11-09T17:09:18.590Z,9.25
2022-11-09T17:11:47.365Z,8.73
2022-11-09T17:14:15.642Z,9.70
2022-11-09T17:16:47.149Z,8.40
2022-11-09T17:19:15.675Z,9.27
2022-11-09T17:21:43.947Z,8.98
2022-11-09T17:24:12.395Z,8.30
2022-11-09T17:26:41.322Z,7.63
2022-11-09T17:29:10.006Z,9.43
2022-11-09T17:31:38.488Z,8.50
2022-11-09T17:34:08.396Z,8.90
2022-11-09T17:37:02.376Z,8.73
2022-11-09T17:39:25.534Z,9.38
2022-11-09T17:41:54.111Z,9.00
2022-11-09T17:44:22.884Z,9.85
2022-11-09T17:46:51.476Z,9.23
2022-11-09T17:49:21.099Z,9.23
2022-11-09T17:51:49.399Z,8.70
2022-11-09T17:54:17.875Z,9.70
2022-11-09T17:56:46.237Z,10.00
2022-11-09T17:59:14.473Z,9.35
2022-11-09T18:01:43.890Z,9.35
2022-11-09T18:04:12.698Z,9.07
2022-11-09T18:06:42.571Z,9.70
2022-11-09T18:09:39.755Z,9.73
2022-11-09T18:11:59.564Z,9.73
2022-11-09T18:14:28.159Z,10.07
2022-11-09T18:16:59.560Z,9.25
2022-11-09T18:19:28.128Z,10.90
2022-11-09T18:22:01.169Z,9.38
2022-11-09T18:24:31.858Z,10.88
2022-11-09T18:27:00.256Z,9.95
2022-11-09T18:29:28.579Z,10.05
2022-11-09T18:31:57.142Z,10.05
2022-11-09T18:34:25.335Z,11.00
2022-11-09T18:36:54.193Z,9.48
2022-11-09T18:39:26.263Z,10.05
2022-11-09T18:41:57.049Z,11.35
2022-11-09T18:44:25.799Z,10.90
2022-11-09T18:46:54.338Z,12.15
2022-11-09T18:49:22.710Z,11.35
2022-11-09T18:51:50.966Z,11.27
2022-11-09T18:54:20.116Z,11.05
2022-11-09T18:56:49.717Z,11.48
2022-11-09T18:59:18.332Z,11.18
2022-11-09T19:01:46.838Z,10.63
2022-11-09T19:04:16.710Z,11.13
2022-11-09T19:06:45.079Z,12.60
2022-11-09T19:09:35.289Z,13.32
2022-11-09T19:12:08.122Z,12.13
2022-11-09T19:14:40.848Z,11.52
2022-11-09T19:17:12.947Z,11.52
2022-11-09T19:19:42.271Z,11.25
2022-11-09T19:22:17.082Z,12.30
2022-11-09T19:24:46.073Z,11.43
2022-11-09T19:27:16.084Z,11.55
2022-11-09T19:29:44.565Z,10.85
2022-11-09T19:32:13.273Z,13.07
2022-11-09T19:34:42.817Z,12.13
2022-11-09T19:37:11.705Z,12.40
2022-11-09T19:39:43.409Z,12.85
2022-11-09T19:42:12.236Z,12.55
2022-11-09T19:44:41.796Z,11.50
2022-11-09T19:47:10.139Z,13.82
2022-11-09T19:49:38.694Z,12.32
2022-11-09T19:52:07.040Z,12.90
2022-11-09T19:54:35.341Z,12.52
2022-11-09T19:57:03.912Z,12.45
2022-11-09T19:59:33.214Z,13.07
2022-11-09T20:02:03.183Z,12.40
2022-11-09T20:04:33.144Z,12.75
2022-11-09T20:07:01.786Z,12.13
2022-11-09T20:09:31.919Z,13.60
2022-11-09T20:12:17.688Z,12.82
2022-11-09T20:14:46.482Z,12.90
2022-11-09T20:17:16.197Z,12.57
2022-11-09T20:19:44.589Z,12.07
2022-11-09T20:22:13.563Z,12.48
2022-11-09T20:24:42.070Z,11.65
2022-11-09T20:27:10.620Z,12.13
2022-11-09T20:29:38.945Z,13.10
2022-11-09T20:32:11.798Z,11.57
2022-11-09T20:34:42.441Z,13.07
2022-11-09T20:37:10.726Z,13.45
2022-11-09T20:39:40.674Z,13.25
2022-11-09T20:42:08.990Z,13.00
2022-11-09T20:44:37.533Z,11.55
2022-11-09T20:47:06.072Z,12.27
2022-11-09T20:49:34.549Z,11.48
2022-11-09T20:52:04.611Z,12.15
2022-11-09T20:54:32.929Z,13.38
2022-11-09T20:57:01.632Z,12.60
2022-11-09T20:59:29.936Z,13.25
2022-11-09T21:01:58.493Z,12.80
2022-11-09T21:04:26.954Z,14.07
2022-11-09T21:06:55.597Z,13.23
2022-11-09T21:09:25.420Z,12.60
2022-11-09T21:12:11.710Z,12.18
2022-11-09T21:14:40.257Z,12.18
2022-11-09T21:17:08.948Z,12.52
2022-11-09T21:19:37.273Z,12.60
2022-11-09T21:22:05.621Z,14.05
2022-11-09T21:24:53.146Z,13.35
2022-11-09T21:27:45.454Z,12.85
2022-11-09T21:30:17.098Z,13.50
2022-11-09T21:32:45.449Z,13.23
2022-11-09T21:35:13.934Z,13.93
2022-11-09T21:37:42.149Z,12.82
2022-11-09T21:40:12.744Z,14.68
2022-11-09T21:42:41.421Z,13.40
2022-11-09T21:45:10.310Z,11.30
2022-11-09T21:47:39.044Z,13.35
2022-11-09T21:50:12.315Z,13.10
2022-11-09T21:52:41.238Z,13.32
2022-11-09T21:55:11.144Z,13.90
2022-11-09T21:57:39.415Z,14.18
2022-11-09T22:00:09.340Z,12.50
2022-11-09T22:02:37.769Z,14.23
2022-11-09T22:05:07.488Z,13.45
2022-11-09T22:07:36.170Z,13.10
2022-11-09T22:10:11.959Z,13.15
2022-11-09T22:13:04.832Z,13.88
2022-11-09T22:15:50.822Z,14.23
2022-11-09T22:18:33.325Z,13.38
2022-11-09T22:21:01.703Z,12.80
2022-11-09T22:23:30.384Z,13.05
2022-11-09T22:26:02.197Z,14.07
2022-11-09T22:28:33.649Z,14.15
2022-11-09T22:31:02.196Z,11.77
2022-11-09T22:33:30.863Z,14.02
2022-11-09T22:36:00.937Z,13.70
2022-11-09T22:38:29.812Z,13.63
2022-11-09T22:41:01.444Z,13.13
2022-11-09T22:43:33.821Z,15.35
2022-11-09T22:46:04.798Z,13.60
2022-11-09T22:48:33.839Z,14.32
2022-11-09T22:51:02.301Z,11.68
2022-11-09T22:53:31.076Z,14.23
2022-11-09T22:56:02.167Z,14.18
2022-11-09T22:58:32.033Z,13.85
2022-11-09T23:01:08.999Z,13.95
2022-11-09T23:03:37.470Z,13.75
2022-11-09T23:06:08.458Z,13.73
2022-11-09T23:08:38.099Z,13.43
2022-11-09T23:11:08.290Z,13.75
2022-11-09T23:13:38.309Z,14.80
2022-11-09T23:16:08.952Z,13.35
2022-11-09T23:18:55.690Z,13.85
2022-11-09T23:21:28.058Z,13.43
2022-11-09T23:23:58.079Z,14.18
2022-11-09T23:26:26.328Z,14.73
2022-11-09T23:28:56.368Z,14.63
2022-11-09T23:31:25.951Z,12.73
2022-11-09T23:33:55.438Z,12.40
2022-11-09T23:36:24.932Z,13.10
2022-11-09T23:38:53.666Z,13.13
2022-11-09T23:41:22.094Z,13.40
2022-11-09T23:43:50.421Z,13.13
2022-11-09T23:46:20.305Z,13.70
2022-11-09T23:48:48.518Z,13.30
2022-11-09T23:51:18.897Z,13.40
2022-11-09T23:53:47.667Z,13.00
2022-11-09T23:56:15.836Z,12.07
2022-11-09T23:58:47.871Z,11.60
